sensor_id;sensor_type;location;lat;lon;timestamp;pressure;altitude;pressure_sealevel;temperature;humidity
42385;BME280;28042;43.986;22.860;2022-10-22T00:01:23;101955.38;;;5.15;92.50
42385;BME280;28042;43.986;22.860;2022-10-22T00:03:49;101937.63;;;5.01;92.70
42385;BME280;28042;43.986;22.860;2022-10-22T00:06:14;101943.22;;;5.09;93.30
42385;BME280;28042;43.986;22.860;2022-10-22T00:08:40;101933.53;;;5.07;93.09
42385;BME280;28042;43.986;22.860;2022-10-22T00:11:13;102013.91;;;5.58;92.83
42385;BME280;28042;43.986;22.860;2022-10-22T00:13:39;101956.38;;;5.14;93.29
42385;BME280;28042;43.986;22.860;2022-10-22T00:16:05;101960.72;;;5.26;93.31
42385;BME280;28042;43.986;22.860;2022-10-22T00:18:31;101952.94;;;5.33;93.13
42385;BME280;28042;43.986;22.860;2022-10-22T00:20:56;102014.75;;;5.58;92.99
42385;BME280;28042;43.986;22.860;2022-10-22T00:23:22;101953.88;;;5.22;92.99
42385;BME280;28042;43.986;22.860;2022-10-22T00:25:47;101997.84;;;5.45;92.88
42385;BME280;28042;43.986;22.860;2022-10-22T00:28:13;101941.84;;;5.15;92.73
42385;BME280;28042;43.986;22.860;2022-10-22T00:30:40;101946.28;;;5.16;92.75
42385;BME280;28042;43.986;22.860;2022-10-22T00:33:05;101968.16;;;5.34;92.47
42385;BME280;28042;43.986;22.860;2022-10-22T00:35:33;101974.91;;;5.39;92.77
42385;BME280;28042;43.986;22.860;2022-10-22T00:37:58;101917.84;;;5.01;93.01
42385;BME280;28042;43.986;22.860;2022-10-22T00:40:24;101919.53;;;5.02;93.35
42385;BME280;28042;43.986;22.860;2022-10-22T00:42:50;101960.00;;;5.24;93.58
42385;BME280;28042;43.986;22.860;2022-10-22T00:45:25;101988.44;;;5.39;93.63
42385;BME280;28042;43.986;22.860;2022-10-22T00:47:59;101972.44;;;5.36;93.48
42385;BME280;28042;43.986;22.860;2022-10-22T00:50:37;101965.84;;;5.29;93.72
42385;BME280;28042;43.986;22.860;2022-10-22T00:53:07;101959.28;;;5.22;94.05
42385;BME280;28042;43.986;22.860;2022-10-22T00:55:35;101889.03;;;4.90;94.24
42385;BME280;28042;43.986;22.860;2022-10-22T00:58:02;101936.78;;;5.22;94.16
42385;BME280;28042;43.986;22.860;2022-10-22T01:00:28;101949.38;;;5.32;94.27
42385;BME280;28042;43.986;22.860;2022-10-22T01:02:54;101886.53;;;4.98;93.80
42385;BME280;28042;43.986;22.860;2022-10-22T01:05:20;101943.41;;;5.38;94.11
42385;BME280;28042;43.986;22.860;2022-10-22T01:07:49;101901.09;;;5.07;93.68
42385;BME280;28042;43.986;22.860;2022-10-22T01:15:37;101960.63;;;5.37;94.38
42385;BME280;28042;43.986;22.860;2022-10-22T01:18:52;101947.09;;;5.37;94.36
42385;BME280;28042;43.986;22.860;2022-10-22T01:21:33;101883.16;;;5.06;94.47
42385;BME280;28042;43.986;22.860;2022-10-22T01:24:59;101928.16;;;5.37;94.58
42385;BME280;28042;43.986;22.860;2022-10-22T01:27:41;101928.91;;;5.39;94.20
42385;BME280;28042;43.986;22.860;2022-10-22T01:30:13;101881.88;;;5.10;94.19
42385;BME280;28042;43.986;22.860;2022-10-22T01:32:46;101897.88;;;5.13;94.83
42385;BME280;28042;43.986;22.860;2022-10-22T01:35:18;101953.38;;;5.38;95.27
42385;BME280;28042;43.986;22.860;2022-10-22T01:37:53;101898.31;;;5.18;94.42
42385;BME280;28042;43.986;22.860;2022-10-22T01:40:20;101882.09;;;4.97;94.94
42385;BME280;28042;43.986;22.860;2022-10-22T01:43:13;101946.25;;;5.37;94.60
42385;BME280;28042;43.986;22.860;2022-10-22T01:45:46;101942.50;;;5.28;94.58
42385;BME280;28042;43.986;22.860;2022-10-22T01:54:00;101937.38;;;5.25;95.18
42385;BME280;28042;43.986;22.860;2022-10-22T01:59:29;101936.56;;;5.34;95.40
42385;BME280;28042;43.986;22.860;2022-10-22T02:02:43;101929.50;;;5.43;94.69
42385;BME280;28042;43.986;22.860;2022-10-22T02:05:27;101932.91;;;5.45;93.82
42385;BME280;28042;43.986;22.860;2022-10-22T02:08:09;101925.66;;;5.46;92.80
42385;BME280;28042;43.986;22.860;2022-10-22T02:10:38;101862.44;;;5.16;92.59
42385;BME280;28042;43.986;22.860;2022-10-22T02:13:08;101857.88;;;5.17;92.48
42385;BME280;28042;43.986;22.860;2022-10-22T02:15:37;101866.03;;;5.26;92.14
42385;BME280;28042;43.986;22.860;2022-10-22T02:18:28;101926.72;;;5.64;92.20
42385;BME280;28042;43.986;22.860;2022-10-22T02:20:57;101880.47;;;5.36;91.99
42385;BME280;28042;43.986;22.860;2022-10-22T02:23:23;101907.88;;;5.53;91.85
42385;BME280;28042;43.986;22.860;2022-10-22T02:25:55;101894.47;;;5.42;92.50
42385;BME280;28042;43.986;22.860;2022-10-22T02:29:04;101925.66;;;5.46;92.65
42385;BME280;28042;43.986;22.860;2022-10-22T02:31:36;101915.00;;;5.54;93.37
42385;BME280;28042;43.986;22.860;2022-10-22T02:34:10;101850.28;;;5.31;92.51
42385;BME280;28042;43.986;22.860;2022-10-22T02:36:41;101904.53;;;5.70;92.06
42385;BME280;28042;43.986;22.860;2022-10-22T02:39:08;101912.84;;;5.78;91.85
42385;BME280;28042;43.986;22.860;2022-10-22T02:41:35;101917.72;;;5.84;91.30
42385;BME280;28042;43.986;22.860;2022-10-22T02:44:07;101896.06;;;5.84;91.30
42385;BME280;28042;43.986;22.860;2022-10-22T02:46:33;101928.78;;;6.02;90.87
42385;BME280;28042;43.986;22.860;2022-10-22T02:48:59;101913.81;;;6.08;90.74
42385;BME280;28042;43.986;22.860;2022-10-22T02:51:26;101907.44;;;6.09;90.71
42385;BME280;28042;43.986;22.860;2022-10-22T02:53:51;101850.44;;;5.80;90.45
42385;BME280;28042;43.986;22.860;2022-10-22T02:56:17;101893.03;;;6.18;90.33
42385;BME280;28042;43.986;22.860;2022-10-22T02:58:44;101857.38;;;6.03;90.14
42385;BME280;28042;43.986;22.860;2022-10-22T03:01:10;101903.59;;;6.31;89.88
42385;BME280;28042;43.986;22.860;2022-10-22T03:03:35;101852.97;;;6.12;89.27
42385;BME280;28042;43.986;22.860;2022-10-22T03:06:01;101908.47;;;6.46;89.35
42385;BME280;28042;43.986;22.860;2022-10-22T03:08:46;101843.97;;;6.11;89.14
42385;BME280;28042;43.986;22.860;2022-10-22T03:11:13;101848.25;;;6.14;89.13
42385;BME280;28042;43.986;22.860;2022-10-22T03:13:38;101903.34;;;6.43;88.81
42385;BME280;28042;43.986;22.860;2022-10-22T03:16:04;101883.63;;;6.41;89.18
42385;BME280;28042;43.986;22.860;2022-10-22T03:18:30;101890.34;;;6.37;89.25
42385;BME280;28042;43.986;22.860;2022-10-22T03:23:46;101827.13;;;6.08;89.92
42385;BME280;28042;43.986;22.860;2022-10-22T03:26:13;101881.91;;;6.31;89.87
42385;BME280;28042;43.986;22.860;2022-10-22T03:28:39;101884.63;;;6.21;90.08
42385;BME280;28042;43.986;22.860;2022-10-22T03:31:06;101869.88;;;5.94;89.59
42385;BME280;28042;43.986;22.860;2022-10-22T03:33:31;101827.59;;;5.63;90.08
42385;BME280;28042;43.986;22.860;2022-10-22T03:35:58;101811.31;;;5.53;89.85
42385;BME280;28042;43.986;22.860;2022-10-22T03:38:24;101816.72;;;5.53;90.44
42385;BME280;28042;43.986;22.860;2022-10-22T03:40:50;101815.59;;;5.56;90.77
42385;BME280;28042;43.986;22.860;2022-10-22T03:43:16;101869.19;;;5.92;90.62
42385;BME280;28042;43.986;22.860;2022-10-22T03:45:43;101884.47;;;6.13;90.67
42385;BME280;28042;43.986;22.860;2022-10-22T03:48:08;101827.38;;;5.85;90.69
42385;BME280;28042;43.986;22.860;2022-10-22T03:50:54;101826.91;;;5.80;90.37
42385;BME280;28042;43.986;22.860;2022-10-22T03:53:20;101888.63;;;6.27;90.10
42385;BME280;28042;43.986;22.860;2022-10-22T03:55:45;101869.06;;;6.23;90.01
42385;BME280;28042;43.986;22.860;2022-10-22T03:58:11;101880.50;;;6.36;89.87
42385;BME280;28042;43.986;22.860;2022-10-22T04:00:36;101866.25;;;6.34;89.88
42385;BME280;28042;43.986;22.860;2022-10-22T04:03:02;101879.50;;;6.37;89.52
42385;BME280;28042;43.986;22.860;2022-10-22T04:05:28;101851.69;;;6.35;90.02
42385;BME280;28042;43.986;22.860;2022-10-22T04:07:53;101818.03;;;6.28;89.74
42385;BME280;28042;43.986;22.860;2022-10-22T04:10:19;101798.22;;;6.18;89.74
42385;BME280;28042;43.986;22.860;2022-10-22T04:12:47;101808.47;;;6.24;89.91
42385;BME280;28042;43.986;22.860;2022-10-22T04:15:13;101854.81;;;6.60;90.10
42385;BME280;28042;43.986;22.860;2022-10-22T04:17:42;101796.63;;;6.25;89.72
42385;BME280;28042;43.986;22.860;2022-10-22T04:20:08;101820.59;;;6.39;89.71
42385;BME280;28042;43.986;22.860;2022-10-22T04:22:34;101812.47;;;6.39;89.16
42385;BME280;28042;43.986;22.860;2022-10-22T04:25:00;101811.63;;;6.39;89.18
42385;BME280;28042;43.986;22.860;2022-10-22T04:27:33;101878.78;;;6.74;89.07
42385;BME280;28042;43.986;22.860;2022-10-22T04:29:59;101874.53;;;6.62;88.71
42385;BME280;28042;43.986;22.860;2022-10-22T04:32:27;101861.53;;;6.65;88.33
42385;BME280;28042;43.986;22.860;2022-10-22T04:34:53;101799.22;;;6.36;88.64
42385;BME280;28042;43.986;22.860;2022-10-22T04:37:38;101771.97;;;6.28;88.97
42385;BME280;28042;43.986;22.860;2022-10-22T04:40:05;101856.22;;;6.83;88.67
42385;BME280;28042;43.986;22.860;2022-10-22T04:42:31;101852.09;;;6.79;88.57
42385;BME280;28042;43.986;22.860;2022-10-22T04:44:56;101871.34;;;6.86;88.96
42385;BME280;28042;43.986;22.860;2022-10-22T04:47:25;101860.22;;;6.89;88.25
42385;BME280;28042;43.986;22.860;2022-10-22T04:49:50;101798.06;;;6.48;87.85
42385;BME280;28042;43.986;22.860;2022-10-22T04:52:16;101804.19;;;6.41;88.20
42385;BME280;28042;43.986;22.860;2022-10-22T04:54:42;101838.69;;;6.68;88.33
42385;BME280;28042;43.986;22.860;2022-10-22T04:57:08;101861.94;;;6.90;88.68
42385;BME280;28042;43.986;22.860;2022-10-22T04:59:33;101793.94;;;6.44;89.58
42385;BME280;28042;43.986;22.860;2022-10-22T05:02:00;101847.09;;;6.84;89.75
42385;BME280;28042;43.986;22.860;2022-10-22T05:04:26;101854.22;;;6.85;89.76
42385;BME280;28042;43.986;22.860;2022-10-22T05:06:51;101784.94;;;6.54;90.02
42385;BME280;28042;43.986;22.860;2022-10-22T05:09:19;101826.00;;;6.78;89.93
42385;BME280;28042;43.986;22.860;2022-10-22T05:11:49;101864.06;;;6.96;89.18
42385;BME280;28042;43.986;22.860;2022-10-22T05:14:21;101857.38;;;6.90;89.08
42385;BME280;28042;43.986;22.860;2022-10-22T05:16:47;101857.78;;;6.95;89.07
42385;BME280;28042;43.986;22.860;2022-10-22T05:19:33;101867.91;;;6.93;89.16
42385;BME280;28042;43.986;22.860;2022-10-22T05:22:00;101818.88;;;6.48;89.58
42385;BME280;28042;43.986;22.860;2022-10-22T05:24:28;101877.38;;;6.79;90.13
42385;BME280;28042;43.986;22.860;2022-10-22T05:26:57;101861.53;;;6.56;90.40
42385;BME280;28042;43.986;22.860;2022-10-22T05:29:23;101821.16;;;6.23;91.46
42385;BME280;28042;43.986;22.860;2022-10-22T05:31:49;101829.13;;;6.25;90.97
42385;BME280;28042;43.986;22.860;2022-10-22T05:34:15;101834.00;;;6.21;90.57
42385;BME280;28042;43.986;22.860;2022-10-22T05:37:00;101887.66;;;6.57;90.08
42385;BME280;28042;43.986;22.860;2022-10-22T05:39:26;101876.38;;;6.51;90.40
42385;BME280;28042;43.986;22.860;2022-10-22T05:41:52;101874.81;;;6.78;90.71
42385;BME280;28042;43.986;22.860;2022-10-22T05:44:18;101866.22;;;6.83;89.19
42385;BME280;28042;43.986;22.860;2022-10-22T05:46:44;101817.28;;;6.74;88.28
42385;BME280;28042;43.986;22.860;2022-10-22T05:49:13;101868.41;;;7.26;87.56
42385;BME280;28042;43.986;22.860;2022-10-22T05:51:39;101856.34;;;7.48;86.77
42385;BME280;28042;43.986;22.860;2022-10-22T05:54:07;101810.75;;;7.51;85.21
42385;BME280;28042;43.986;22.860;2022-10-22T05:56:35;101859.56;;;7.88;82.75
42385;BME280;28042;43.986;22.860;2022-10-22T05:59:02;101879.47;;;8.07;81.92
42385;BME280;28042;43.986;22.860;2022-10-22T06:01:29;101821.00;;;7.85;81.55
42385;BME280;28042;43.986;22.860;2022-10-22T06:03:58;101832.22;;;7.90;80.99
42385;BME280;28042;43.986;22.860;2022-10-22T06:06:48;101828.91;;;7.96;80.16
42385;BME280;28042;43.986;22.860;2022-10-22T06:09:34;101875.91;;;8.24;79.76
42385;BME280;28042;43.986;22.860;2022-10-22T06:12:01;101866.75;;;8.35;79.68
42385;BME280;28042;43.986;22.860;2022-10-22T06:14:27;101820.69;;;8.06;79.68
42385;BME280;28042;43.986;22.860;2022-10-22T06:16:53;101828.47;;;8.18;79.48
42385;BME280;28042;43.986;22.860;2022-10-22T06:19:20;101837.09;;;8.32;79.77
42385;BME280;28042;43.986;22.860;2022-10-22T06:21:47;101832.13;;;8.27;79.51
42385;BME280;28042;43.986;22.860;2022-10-22T06:24:12;101825.47;;;8.39;79.33
42385;BME280;28042;43.986;22.860;2022-10-22T06:26:39;101864.78;;;8.81;79.87
42385;BME280;28042;43.986;22.860;2022-10-22T06:29:06;101865.06;;;8.95;79.57
42385;BME280;28042;43.986;22.860;2022-10-22T06:31:32;101820.44;;;8.88;78.21
42385;BME280;28042;43.986;22.860;2022-10-22T06:34:04;101872.63;;;9.35;78.23
42385;BME280;28042;43.986;22.860;2022-10-22T06:36:31;101818.06;;;9.19;76.87
42385;BME280;28042;43.986;22.860;2022-10-22T06:38:57;101877.19;;;9.61;76.75
42385;BME280;28042;43.986;22.860;2022-10-22T06:41:23;101887.13;;;9.70;77.29
42385;BME280;28042;43.986;22.860;2022-10-22T06:43:48;101875.38;;;9.70;76.30
42385;BME280;28042;43.986;22.860;2022-10-22T06:46:19;101882.59;;;9.87;76.24
42385;BME280;28042;43.986;22.860;2022-10-22T06:48:52;101822.72;;;9.61;75.54
42385;BME280;28042;43.986;22.860;2022-10-22T06:51:18;101863.75;;;10.02;74.51
42385;BME280;28042;43.986;22.860;2022-10-22T06:53:45;101813.78;;;9.85;74.63
42385;BME280;28042;43.986;22.860;2022-10-22T06:56:13;101842.06;;;10.34;73.74
42385;BME280;28042;43.986;22.860;2022-10-22T06:58:39;101822.97;;;10.42;71.10
42385;BME280;28042;43.986;22.860;2022-10-22T07:01:08;101873.97;;;10.83;69.44
42385;BME280;28042;43.986;22.860;2022-10-22T07:03:34;101863.53;;;11.02;68.91
42385;BME280;28042;43.986;22.860;2022-10-22T07:06:04;101854.28;;;11.20;67.24
42385;BME280;28042;43.986;22.860;2022-10-22T07:08:31;101852.56;;;11.27;66.16
42385;BME280;28042;43.986;22.860;2022-10-22T07:11:23;101858.34;;;11.40;65.26
42385;BME280;28042;43.986;22.860;2022-10-22T07:13:50;101859.38;;;11.47;65.21
42385;BME280;28042;43.986;22.860;2022-10-22T07:16:16;101819.03;;;11.57;65.08
42385;BME280;28042;43.986;22.860;2022-10-22T07:18:43;101865.81;;;12.10;63.84
42385;BME280;28042;43.986;22.860;2022-10-22T07:21:09;101856.47;;;11.96;63.07
42385;BME280;28042;43.986;22.860;2022-10-22T07:23:35;101807.75;;;11.52;62.83
42385;BME280;28042;43.986;22.860;2022-10-22T07:26:01;101794.34;;;11.26;63.81
42385;BME280;28042;43.986;22.860;2022-10-22T07:28:27;101786.66;;;11.38;63.96
42385;BME280;28042;43.986;22.860;2022-10-22T07:30:53;101836.22;;;11.74;62.95
42385;BME280;28042;43.986;22.860;2022-10-22T07:33:19;101802.41;;;11.67;62.58
42385;BME280;28042;43.986;22.860;2022-10-22T07:35:45;101792.41;;;11.51;62.62
42385;BME280;28042;43.986;22.860;2022-10-22T07:38:10;101846.59;;;11.87;61.64
42385;BME280;28042;43.986;22.860;2022-10-22T07:40:36;101785.19;;;11.58;62.07
42385;BME280;28042;43.986;22.860;2022-10-22T07:43:02;101835.19;;;12.06;61.70
42385;BME280;28042;43.986;22.860;2022-10-22T07:45:27;101769.66;;;11.90;60.54
42385;BME280;28042;43.986;22.860;2022-10-22T07:47:53;101825.16;;;12.30;59.41
42385;BME280;28042;43.986;22.860;2022-10-22T07:50:19;101769.94;;;12.03;60.11
42385;BME280;28042;43.986;22.860;2022-10-22T07:52:44;101813.97;;;12.62;59.41
42385;BME280;28042;43.986;22.860;2022-10-22T07:55:10;101803.16;;;12.84;58.17
42385;BME280;28042;43.986;22.860;2022-10-22T07:57:38;101758.66;;;12.82;56.38
42385;BME280;28042;43.986;22.860;2022-10-22T08:00:05;101791.56;;;13.11;57.38
42385;BME280;28042;43.986;22.860;2022-10-22T08:02:31;101764.16;;;13.11;56.51
42385;BME280;28042;43.986;22.860;2022-10-22T08:04:56;101765.81;;;13.35;54.76
42385;BME280;28042;43.986;22.860;2022-10-22T08:07:22;101795.56;;;13.53;54.02
42385;BME280;28042;43.986;22.860;2022-10-22T08:09:48;101818.03;;;13.93;53.89
42385;BME280;28042;43.986;22.860;2022-10-22T08:12:13;101765.09;;;13.77;54.10
42385;BME280;28042;43.986;22.860;2022-10-22T08:14:39;101752.41;;;13.76;53.45
42385;BME280;28042;43.986;22.860;2022-10-22T08:17:04;101812.06;;;14.25;53.36
42385;BME280;28042;43.986;22.860;2022-10-22T08:19:30;101779.94;;;13.83;53.14
42385;BME280;28042;43.986;22.860;2022-10-22T08:21:58;101777.09;;;13.76;53.37
42385;BME280;28042;43.986;22.860;2022-10-22T08:24:24;101762.84;;;13.66;53.27
42385;BME280;28042;43.986;22.860;2022-10-22T08:26:53;101748.63;;;13.77;52.60
42385;BME280;28042;43.986;22.860;2022-10-22T08:29:21;101760.31;;;14.01;52.68
42385;BME280;28042;43.986;22.860;2022-10-22T08:31:48;101804.78;;;14.54;52.21
42385;BME280;28042;43.986;22.860;2022-10-22T08:34:13;101740.75;;;14.32;51.41
42385;BME280;28042;43.986;22.860;2022-10-22T08:36:39;101799.50;;;14.52;51.37
42385;BME280;28042;43.986;22.860;2022-10-22T08:39:04;101748.22;;;13.44;52.39
42385;BME280;28042;43.986;22.860;2022-10-22T08:41:37;101788.75;;;13.64;53.14
42385;BME280;28042;43.986;22.860;2022-10-22T08:44:14;101796.44;;;13.90;52.66
42385;BME280;28042;43.986;22.860;2022-10-22T08:46:49;101785.97;;;14.14;52.81
42385;BME280;28042;43.986;22.860;2022-10-22T08:49:43;101773.53;;;14.55;52.10
42385;BME280;28042;43.986;22.860;2022-10-22T08:52:15;101767.06;;;14.62;52.44
42385;BME280;28042;43.986;22.860;2022-10-22T08:54:58;101725.66;;;14.64;52.42
42385;BME280;28042;43.986;22.860;2022-10-22T09:08:02;101739.00;;;13.81;52.18
42385;BME280;28042;43.986;22.860;2022-10-22T09:10:33;101753.72;;;13.80;52.82
42385;BME280;28042;43.986;22.860;2022-10-22T09:12:59;101785.00;;;14.43;52.00
42385;BME280;28042;43.986;22.860;2022-10-22T09:15:25;101790.66;;;14.57;51.96
42385;BME280;28042;43.986;22.860;2022-10-22T09:23:28;101788.97;;;14.84;51.60
42385;BME280;28042;43.986;22.860;2022-10-22T09:25:58;101786.25;;;15.18;50.76
42385;BME280;28042;43.986;22.860;2022-10-22T09:28:24;101730.84;;;14.52;51.64
42385;BME280;28042;43.986;22.860;2022-10-22T09:30:50;101775.09;;;14.92;52.20
42385;BME280;28042;43.986;22.860;2022-10-22T09:33:24;101783.66;;;15.04;51.19
42385;BME280;28042;43.986;22.860;2022-10-22T09:36:02;101754.97;;;15.13;51.65
42385;BME280;28042;43.986;22.860;2022-10-22T09:38:33;101758.03;;;15.31;51.10
42385;BME280;28042;43.986;22.860;2022-10-22T09:41:03;101728.00;;;15.30;50.14
42385;BME280;28042;43.986;22.860;2022-10-22T09:43:29;101715.31;;;15.35;49.48
42385;BME280;28042;43.986;22.860;2022-10-22T09:46:04;101759.53;;;15.75;48.80
42385;BME280;28042;43.986;22.860;2022-10-22T09:48:38;101757.84;;;15.87;48.87
42385;BME280;28042;43.986;22.860;2022-10-22T09:54:23;101710.81;;;15.69;48.45
42385;BME280;28042;43.986;22.860;2022-10-22T09:57:16;101749.44;;;16.15;48.53
42385;BME280;28042;43.986;22.860;2022-10-22T09:59:43;101741.84;;;16.24;48.15
42385;BME280;28042;43.986;22.860;2022-10-22T10:02:25;101746.03;;;16.06;48.72
42385;BME280;28042;43.986;22.860;2022-10-22T10:04:53;101730.81;;;16.24;48.67
42385;BME280;28042;43.986;22.860;2022-10-22T10:09:47;101709.44;;;16.19;48.72
42385;BME280;28042;43.986;22.860;2022-10-22T10:15:15;101727.47;;;16.61;47.91
42385;BME280;28042;43.986;22.860;2022-10-22T10:20:48;101708.59;;;16.58;48.47
42385;BME280;28042;43.986;22.860;2022-10-22T10:37:30;101698.53;;;17.23;46.87
42385;BME280;28042;43.986;22.860;2022-10-22T10:40:26;101695.34;;;17.20;46.63
42385;BME280;28042;43.986;22.860;2022-10-22T10:42:57;101693.41;;;17.34;46.36
42385;BME280;28042;43.986;22.860;2022-10-22T10:51:06;101674.06;;;17.85;45.43
42385;BME280;28042;43.986;22.860;2022-10-22T10:53:45;101672.34;;;17.91;45.27
42385;BME280;28042;43.986;22.860;2022-10-22T10:58:47;101670.00;;;17.88;45.16
42385;BME280;28042;43.986;22.860;2022-10-22T11:06:38;101631.44;;;18.31;44.88
42385;BME280;28042;43.986;22.860;2022-10-22T11:09:07;101632.66;;;18.60;43.74
42385;BME280;28042;43.986;22.860;2022-10-22T11:11:44;101632.41;;;18.86;43.24
42385;BME280;28042;43.986;22.860;2022-10-22T11:14:19;101577.16;;;18.43;43.40
42385;BME280;28042;43.986;22.860;2022-10-22T11:16:54;101615.22;;;19.03;43.13
42385;BME280;28042;43.986;22.860;2022-10-22T11:30:19;101598.19;;;18.19;44.88
42385;BME280;28042;43.986;22.860;2022-10-22T11:32:49;101585.31;;;18.31;44.37
42385;BME280;28042;43.986;22.860;2022-10-22T11:35:19;101593.00;;;18.29;44.59
42385;BME280;28042;43.986;22.860;2022-10-22T11:37:46;101533.06;;;17.87;44.59
42385;BME280;28042;43.986;22.860;2022-10-22T11:40:19;101572.28;;;18.20;44.90
42385;BME280;28042;43.986;22.860;2022-10-22T11:42:51;101564.84;;;18.39;44.26
42385;BME280;28042;43.986;22.860;2022-10-22T11:58:33;101523.34;;;18.46;43.33
42385;BME280;28042;43.986;22.860;2022-10-22T12:16:18;101485.41;;;18.89;42.57
42385;BME280;28042;43.986;22.860;2022-10-22T12:18:46;101517.03;;;18.93;42.88
42385;BME280;28042;43.986;22.860;2022-10-22T12:21:13;101516.66;;;18.90;43.15
42385;BME280;28042;43.986;22.860;2022-10-22T12:23:40;101520.97;;;18.86;43.66
42385;BME280;28042;43.986;22.860;2022-10-22T12:26:24;101525.28;;;18.82;43.55
42385;BME280;28042;43.986;22.860;2022-10-22T12:28:50;101476.53;;;18.69;42.96
42385;BME280;28042;43.986;22.860;2022-10-22T12:31:16;101470.81;;;18.82;43.06
42385;BME280;28042;43.986;22.860;2022-10-22T12:33:42;101511.69;;;19.10;43.00
42385;BME280;28042;43.986;22.860;2022-10-22T12:36:16;101455.25;;;19.00;42.62
42385;BME280;28042;43.986;22.860;2022-10-22T12:38:44;101484.50;;;19.37;42.15
42385;BME280;28042;43.986;22.860;2022-10-22T12:41:11;101485.94;;;19.52;42.21
42385;BME280;28042;43.986;22.860;2022-10-22T12:43:37;101486.91;;;19.45;42.16
42385;BME280;28042;43.986;22.860;2022-10-22T12:46:13;101481.50;;;19.39;42.10
42385;BME280;28042;43.986;22.860;2022-10-22T12:48:42;101458.63;;;19.02;42.27
42385;BME280;28042;43.986;22.860;2022-10-22T12:51:15;101497.53;;;18.88;43.13
42385;BME280;28042;43.986;22.860;2022-10-22T12:53:48;101495.25;;;18.67;43.62
42385;BME280;28042;43.986;22.860;2022-10-22T12:56:21;101476.66;;;18.56;43.53
42385;BME280;28042;43.986;22.860;2022-10-22T12:59:01;101514.81;;;18.84;43.61
42385;BME280;28042;43.986;22.860;2022-10-22T13:01:31;101466.84;;;18.60;43.35
42385;BME280;28042;43.986;22.860;2022-10-22T13:04:20;101496.91;;;19.05;43.39
42385;BME280;28042;43.986;22.860;2022-10-22T13:09:45;101486.75;;;18.99;44.59
42385;BME280;28042;43.986;22.860;2022-10-22T13:12:11;101439.06;;;18.73;43.55
42385;BME280;28042;43.986;22.860;2022-10-22T13:14:44;101484.59;;;19.01;43.82
42385;BME280;28042;43.986;22.860;2022-10-22T13:19:48;101438.25;;;18.84;44.21
42385;BME280;28042;43.986;22.860;2022-10-22T13:22:35;101477.25;;;19.36;43.52
42385;BME280;28042;43.986;22.860;2022-10-22T13:27:48;101490.47;;;19.76;42.65
42385;BME280;28042;43.986;22.860;2022-10-22T13:30:29;101480.00;;;20.01;41.14
42385;BME280;28042;43.986;22.860;2022-10-22T13:33:06;101479.91;;;20.08;41.18
42385;BME280;28042;43.986;22.860;2022-10-22T13:35:44;101438.81;;;19.93;41.32
42385;BME280;28042;43.986;22.860;2022-10-22T13:38:17;101477.72;;;20.10;41.30
42385;BME280;28042;43.986;22.860;2022-10-22T13:40:43;101462.94;;;19.81;41.20
42385;BME280;28042;43.986;22.860;2022-10-22T13:43:09;101458.09;;;19.65;41.55
42385;BME280;28042;43.986;22.860;2022-10-22T13:45:34;101437.34;;;19.56;41.76
42385;BME280;28042;43.986;22.860;2022-10-22T13:48:00;101475.41;;;19.72;41.84
42385;BME280;28042;43.986;22.860;2022-10-22T13:50:25;101436.97;;;19.52;41.67
42385;BME280;28042;43.986;22.860;2022-10-22T13:52:54;101494.34;;;19.87;41.56
42385;BME280;28042;43.986;22.860;2022-10-22T13:55:27;101492.41;;;19.87;41.20
42385;BME280;28042;43.986;22.860;2022-10-22T13:57:59;101494.34;;;19.75;41.22
42385;BME280;28042;43.986;22.860;2022-10-22T14:00:26;101464.41;;;19.54;41.35
42385;BME280;28042;43.986;22.860;2022-10-22T14:02:53;101488.66;;;19.70;42.17
42385;BME280;28042;43.986;22.860;2022-10-22T14:05:21;101475.72;;;19.40;43.37
42385;BME280;28042;43.986;22.860;2022-10-22T14:07:47;101435.09;;;19.11;44.26
42385;BME280;28042;43.986;22.860;2022-10-22T14:10:23;101465.81;;;19.21;44.13
42385;BME280;28042;43.986;22.860;2022-10-22T14:12:50;101404.50;;;18.64;44.98
42385;BME280;28042;43.986;22.860;2022-10-22T14:15:17;101456.41;;;18.80;45.23
42385;BME280;28042;43.986;22.860;2022-10-22T14:17:46;101424.66;;;18.34;45.05
42385;BME280;28042;43.986;22.860;2022-10-22T14:20:25;101411.78;;;18.28;46.28
42385;BME280;28042;43.986;22.860;2022-10-22T14:22:52;101465.78;;;18.43;47.44
42385;BME280;28042;43.986;22.860;2022-10-22T14:25:23;101424.03;;;18.14;46.54
42385;BME280;28042;43.986;22.860;2022-10-22T14:27:49;101461.94;;;18.44;46.15
42385;BME280;28042;43.986;22.860;2022-10-22T14:30:17;101456.88;;;18.41;46.24
42385;BME280;28042;43.986;22.860;2022-10-22T14:32:43;101425.72;;;18.15;48.25
42385;BME280;28042;43.986;22.860;2022-10-22T14:35:12;101412.63;;;18.11;47.49
42385;BME280;28042;43.986;22.860;2022-10-22T14:37:38;101404.16;;;18.05;48.36
42385;BME280;28042;43.986;22.860;2022-10-22T14:40:04;101388.63;;;17.93;48.86
42385;BME280;28042;43.986;22.860;2022-10-22T14:42:30;101395.81;;;17.94;48.72
42385;BME280;28042;43.986;22.860;2022-10-22T14:44:55;101397.81;;;17.87;48.20
42385;BME280;28042;43.986;22.860;2022-10-22T14:47:21;101401.34;;;17.94;48.35
42385;BME280;28042;43.986;22.860;2022-10-22T14:49:46;101422.81;;;18.10;48.74
42385;BME280;28042;43.986;22.860;2022-10-22T14:52:12;101397.56;;;17.88;50.76
42385;BME280;28042;43.986;22.860;2022-10-22T14:54:37;101426.19;;;18.12;51.13
42385;BME280;28042;43.986;22.860;2022-10-22T14:57:04;101430.94;;;18.05;51.21
42385;BME280;28042;43.986;22.860;2022-10-22T14:59:29;101386.28;;;17.71;49.98